메인 페이지
METAR-TAF:

METAR-TAF

공항 :

구이린 량장 국제공항

구이린, 중국

위도: 25-20N, 경도: 110-18E, 고도: 166m

현재 날씨관측

예보는 1 시간 6분 전, 04:00시(UTC)에 발표되었습니다.
동북동4kt
온도 16°C
습도 94%
기압 1018 hPa
시정 10km 이상
고도 500ft 상공 구름 보통
고도 2300ft 상공 구름 많음
고도 4600ft 상공 흐림

METAR: ZGKL 150400Z 06002MPS 9999 SCT005 BKN023 OVC046 16/15 Q1018 NOSIG

시각: 13:06 (05:06 UTC)

예보

예보는 9 시간 51분 전, 19:15시(UTC)에 발표되었습니다.
예보 대상 시간: 15일 00시부터 15일 24시까지 (UTC)
여러 방향의 바람 2kt
시정: 3500m
고도 800ft 상공 구름 조금
고도 2300ft 상공 구름 보통
고도 4000ft 상공 흐림
약한비, 박무
일시적
15일 00시부터 15일 06시까지 (UTC)
시정: 2500m

TAF: ZGKL 141915Z 1500/1524 VRB01MPS 3500 -RA BR FEW008 SCT023 OVC040 TX17/1507Z TN15/1522Z TEMPO 1500/1506 2500 RA

4,000개 이상의 공항 관측 자료 및 예보 (METAR 및 TAF 보고).

지도상에서 검색 가능한 기상관측소가 노란 점과 빨간 점으로 표시되어 있습니다.

기상관측소 명을 보려면 표시 위로 마우스를 이동하세요.

날씨 관측과 예보를 보려면 클릭하세요.

지도 변경 : 확대하려면 엑스 표시가 있는 녹색 버튼, 축소하려면 빼기 표시가 있는 녹색 버튼, 다음 페이지의 지도를 보려면 녹색 화살표를 클릭하세요.


METAR-TAF: